sensor_id;sensor_type;location;lat;lon;timestamp;pressure;altitude;pressure_sealevel;temperature;humidity
44044;BME280;29709;52.396;16.796;2023-05-10T00:00:22;101863.02;;;11.43;48.27
44044;BME280;29709;52.396;16.796;2023-05-10T00:03:36;101861.60;;;11.39;48.04
44044;BME280;29709;52.396;16.796;2023-05-10T00:06:49;101843.77;;;11.33;48.85
44044;BME280;29709;52.396;16.796;2023-05-10T00:10:03;101847.70;;;11.31;47.94
44044;BME280;29709;52.396;16.796;2023-05-10T00:13:16;101845.26;;;11.27;48.28
44044;BME280;29709;52.396;16.796;2023-05-10T00:16:29;101843.08;;;11.21;48.57
44044;BME280;29709;52.396;16.796;2023-05-10T00:19:43;101843.68;;;11.15;48.42
44044;BME280;29709;52.396;16.796;2023-05-10T00:22:56;101834.41;;;11.07;48.64
44044;BME280;29709;52.396;16.796;2023-05-10T00:26:09;101837.32;;;11.05;48.59
44044;BME280;29709;52.396;16.796;2023-05-10T00:29:22;101828.20;;;11.05;48.73
44044;BME280;29709;52.396;16.796;2023-05-10T00:32:35;101834.28;;;10.98;48.96
44044;BME280;29709;52.396;16.796;2023-05-10T00:35:49;101820.82;;;10.95;48.98
44044;BME280;29709;52.396;16.796;2023-05-10T00:39:03;101827.19;;;10.86;49.24
44044;BME280;29709;52.396;16.796;2023-05-10T00:42:16;101819.21;;;10.83;49.44
44044;BME280;29709;52.396;16.796;2023-05-10T00:45:31;101819.81;;;10.77;49.20
44044;BME280;29709;52.396;16.796;2023-05-10T00:48:45;101822.25;;;10.70;49.78
44044;BME280;29709;52.396;16.796;2023-05-10T00:51:59;101815.47;;;10.65;49.63
44044;BME280;29709;52.396;16.796;2023-05-10T00:55:12;101818.38;;;10.63;49.50
44044;BME280;29709;52.396;16.796;2023-05-10T00:58:26;101816.03;;;10.59;50.18
44044;BME280;29709;52.396;16.796;2023-05-10T01:01:41;101813.73;;;10.54;50.12
44044;BME280;29709;52.396;16.796;2023-05-10T01:04:54;101810.82;;;10.46;50.23
44044;BME280;29709;52.396;16.796;2023-05-10T01:08:08;101808.22;;;10.45;50.07
44044;BME280;29709;52.396;16.796;2023-05-10T01:11:21;101801.14;;;10.42;50.08
44044;BME280;29709;52.396;16.796;2023-05-10T01:14:35;101804.59;;;10.34;50.47
44044;BME280;29709;52.396;16.796;2023-05-10T01:17:49;101798.80;;;10.37;50.48
44044;BME280;29709;52.396;16.796;2023-05-10T01:24:38;101794.60;;;10.24;51.08
44044;BME280;29709;52.396;16.796;2023-05-10T01:41:45;101789.32;;;10.01;51.02
44044;BME280;29709;52.396;16.796;2023-05-10T01:48:23;101785.41;;;10.04;51.26
44044;BME280;29709;52.396;16.796;2023-05-10T01:51:45;101785.56;;;10.02;51.43
44044;BME280;29709;52.396;16.796;2023-05-10T01:55:02;101784.55;;;10.03;51.46
44044;BME280;29709;52.396;16.796;2023-05-10T01:58:26;101780.32;;;9.99;51.40
44044;BME280;29709;52.396;16.796;2023-05-10T02:01:39;101773.67;;;9.92;51.51
44044;BME280;29709;52.396;16.796;2023-05-10T02:04:54;101771.80;;;9.93;51.43
44044;BME280;29709;52.396;16.796;2023-05-10T02:08:10;101775.23;;;9.85;51.71
44044;BME280;29709;52.396;16.796;2023-05-10T02:11:24;101767.15;;;9.83;52.42
44044;BME280;29709;52.396;16.796;2023-05-10T02:14:39;101767.44;;;9.80;52.65
44044;BME280;29709;52.396;16.796;2023-05-10T02:17:55;101764.54;;;9.82;52.41
44044;BME280;29709;52.396;16.796;2023-05-10T02:21:10;101761.80;;;9.82;52.17
44044;BME280;29709;52.396;16.796;2023-05-10T02:24:25;101765.41;;;9.82;51.86
44044;BME280;29709;52.396;16.796;2023-05-10T02:27:41;101766.79;;;9.67;52.65
44044;BME280;29709;52.396;16.796;2023-05-10T02:30:56;101762.45;;;9.65;52.31
44044;BME280;29709;52.396;16.796;2023-05-10T02:34:10;101764.15;;;9.56;52.24
44044;BME280;29709;52.396;16.796;2023-05-10T02:37:25;101768.18;;;9.52;52.79
44044;BME280;29709;52.396;16.796;2023-05-10T02:40:41;101767.90;;;9.55;53.10
44044;BME280;29709;52.396;16.796;2023-05-10T02:43:57;101770.65;;;9.55;53.15
44044;BME280;29709;52.396;16.796;2023-05-10T02:47:13;101763.10;;;9.47;52.80
44044;BME280;29709;52.396;16.796;2023-05-10T02:50:28;101769.16;;;9.41;53.28
44044;BME280;29709;52.396;16.796;2023-05-10T02:53:44;101762.23;;;9.47;52.96
44044;BME280;29709;52.396;16.796;2023-05-10T02:57:02;101759.63;;;9.45;52.91
44044;BME280;29709;52.396;16.796;2023-05-10T03:00:17;101762.61;;;9.33;53.78
44044;BME280;29709;52.396;16.796;2023-05-10T03:03:30;101767.51;;;9.29;53.56
44044;BME280;29709;52.396;16.796;2023-05-10T03:06:45;101757.07;;;9.23;53.82
44044;BME280;29709;52.396;16.796;2023-05-10T03:09:58;101753.88;;;9.18;54.21
44044;BME280;29709;52.396;16.796;2023-05-10T03:20:08;101751.33;;;9.05;54.10
44044;BME280;29709;52.396;16.796;2023-05-10T03:23:27;101750.02;;;9.00;54.44
44044;BME280;29709;52.396;16.796;2023-05-10T03:26:44;101750.88;;;9.00;54.45
44044;BME280;29709;52.396;16.796;2023-05-10T03:29:58;101742.23;;;9.05;54.47
44044;BME280;29709;52.396;16.796;2023-05-10T03:33:13;101738.49;;;9.06;54.34
44044;BME280;29709;52.396;16.796;2023-05-10T03:36:27;101746.61;;;9.07;54.76
44044;BME280;29709;52.396;16.796;2023-05-10T03:39:40;101742.15;;;9.16;54.45
44044;BME280;29709;52.396;16.796;2023-05-10T03:42:53;101750.38;;;9.16;54.13
44044;BME280;29709;52.396;16.796;2023-05-10T03:46:06;101742.86;;;9.08;54.62
44044;BME280;29709;52.396;16.796;2023-05-10T03:49:20;101750.66;;;9.13;54.52
44044;BME280;29709;52.396;16.796;2023-05-10T03:52:33;101750.07;;;9.09;54.80
44044;BME280;29709;52.396;16.796;2023-05-10T03:55:46;101756.43;;;9.10;54.83
44044;BME280;29709;52.396;16.796;2023-05-10T03:58:59;101751.14;;;9.18;54.32
44044;BME280;29709;52.396;16.796;2023-05-10T04:02:13;101748.55;;;9.26;54.27
44044;BME280;29709;52.396;16.796;2023-05-10T04:05:26;101755.38;;;9.32;54.32
44044;BME280;29709;52.396;16.796;2023-05-10T04:08:39;101751.49;;;9.34;54.51
44044;BME280;29709;52.396;16.796;2023-05-10T04:11:52;101755.09;;;9.35;54.49
44044;BME280;29709;52.396;16.796;2023-05-10T04:15:06;101754.28;;;9.44;54.72
44044;BME280;29709;52.396;16.796;2023-05-10T04:18:20;101748.40;;;9.48;54.41
44044;BME280;29709;52.396;16.796;2023-05-10T04:21:33;101748.84;;;9.53;54.36
44044;BME280;29709;52.396;16.796;2023-05-10T04:24:46;101749.41;;;9.57;54.75
44044;BME280;29709;52.396;16.796;2023-05-10T04:27:59;101749.20;;;9.70;54.59
44044;BME280;29709;52.396;16.796;2023-05-10T04:31:12;101748.94;;;9.82;54.22
44044;BME280;29709;52.396;16.796;2023-05-10T04:34:25;101742.43;;;9.83;53.72
44044;BME280;29709;52.396;16.796;2023-05-10T04:37:39;101749.10;;;9.91;53.74
44044;BME280;29709;52.396;16.796;2023-05-10T04:40:52;101753.00;;;9.98;53.89
44044;BME280;29709;52.396;16.796;2023-05-10T04:44:05;101753.74;;;10.09;53.58
44044;BME280;29709;52.396;16.796;2023-05-10T04:47:19;101754.34;;;10.03;53.58
44044;BME280;29709;52.396;16.796;2023-05-10T04:50:32;101756.48;;;10.09;53.73
44044;BME280;29709;52.396;16.796;2023-05-10T04:53:46;101753.05;;;10.17;53.60
44044;BME280;29709;52.396;16.796;2023-05-10T04:56:59;101760.89;;;10.31;53.81
44044;BME280;29709;52.396;16.796;2023-05-10T05:00:13;101751.79;;;10.50;53.39
44044;BME280;29709;52.396;16.796;2023-05-10T05:03:26;101756.27;;;10.61;53.06
44044;BME280;29709;52.396;16.796;2023-05-10T05:06:39;101759.02;;;10.70;52.91
44044;BME280;29709;52.396;16.796;2023-05-10T05:09:53;101755.55;;;10.78;52.70
44044;BME280;29709;52.396;16.796;2023-05-10T05:13:06;101758.86;;;10.91;52.61
44044;BME280;29709;52.396;16.796;2023-05-10T05:16:19;101765.90;;;11.13;52.46
44044;BME280;29709;52.396;16.796;2023-05-10T05:19:32;101764.42;;;11.28;52.08
44044;BME280;29709;52.396;16.796;2023-05-10T05:22:45;101760.98;;;11.54;51.86
44044;BME280;29709;52.396;16.796;2023-05-10T05:25:58;101753.45;;;11.93;51.48
44044;BME280;29709;52.396;16.796;2023-05-10T05:29:11;101759.50;;;12.42;49.80
44044;BME280;29709;52.396;16.796;2023-05-10T05:32:26;101759.71;;;12.49;49.16
44044;BME280;29709;52.396;16.796;2023-05-10T05:35:39;101757.38;;;12.71;49.09
44044;BME280;29709;52.396;16.796;2023-05-10T05:38:52;101754.47;;;12.99;48.62
44044;BME280;29709;52.396;16.796;2023-05-10T05:42:06;101754.72;;;13.32;48.16
44044;BME280;29709;52.396;16.796;2023-05-10T05:45:44;101748.85;;;13.61;47.47
44044;BME280;29709;52.396;16.796;2023-05-10T05:48:57;101752.27;;;13.89;46.68
44044;BME280;29709;52.396;16.796;2023-05-10T05:52:11;101749.54;;;14.05;46.71
44044;BME280;29709;52.396;16.796;2023-05-10T05:55:24;101744.05;;;14.13;46.29
44044;BME280;29709;52.396;16.796;2023-05-10T05:58:39;101745.37;;;14.51;45.83
44044;BME280;29709;52.396;16.796;2023-05-10T06:01:52;101747.95;;;14.44;45.58
44044;BME280;29709;52.396;16.796;2023-05-10T06:05:06;101749.01;;;14.60;45.22
44044;BME280;29709;52.396;16.796;2023-05-10T06:08:23;101740.89;;;14.75;44.72
44044;BME280;29709;52.396;16.796;2023-05-10T06:11:37;101745.38;;;14.59;44.25
44044;BME280;29709;52.396;16.796;2023-05-10T06:14:50;101744.84;;;14.88;44.81
44044;BME280;29709;52.396;16.796;2023-05-10T06:18:04;101742.26;;;15.11;44.39
44044;BME280;29709;52.396;16.796;2023-05-10T06:21:17;101743.94;;;15.28;43.65
44044;BME280;29709;52.396;16.796;2023-05-10T06:24:30;101743.38;;;15.41;43.72
44044;BME280;29709;52.396;16.796;2023-05-10T06:27:44;101744.05;;;15.51;43.51
44044;BME280;29709;52.396;16.796;2023-05-10T06:30:57;101739.52;;;15.58;43.06
44044;BME280;29709;52.396;16.796;2023-05-10T06:34:10;101745.45;;;15.64;43.26
44044;BME280;29709;52.396;16.796;2023-05-10T06:37:24;101744.45;;;15.96;43.39
44044;BME280;29709;52.396;16.796;2023-05-10T06:40:41;101731.48;;;16.19;42.32
44044;BME280;29709;52.396;16.796;2023-05-10T06:43:54;101736.58;;;16.38;42.07
44044;BME280;29709;52.396;16.796;2023-05-10T06:47:08;101734.28;;;16.42;41.81
44044;BME280;29709;52.396;16.796;2023-05-10T06:50:21;101741.05;;;16.70;41.67
44044;BME280;29709;52.396;16.796;2023-05-10T06:53:34;101742.52;;;16.81;41.63
44044;BME280;29709;52.396;16.796;2023-05-10T06:56:48;101741.76;;;16.87;41.17
44044;BME280;29709;52.396;16.796;2023-05-10T07:00:02;101738.98;;;17.10;40.90
44044;BME280;29709;52.396;16.796;2023-05-10T07:03:17;101738.32;;;17.38;41.33
44044;BME280;29709;52.396;16.796;2023-05-10T07:06:30;101743.96;;;17.29;40.67
44044;BME280;29709;52.396;16.796;2023-05-10T07:09:44;101740.63;;;17.34;40.64
44044;BME280;29709;52.396;16.796;2023-05-10T07:12:57;101736.62;;;17.51;40.08
44044;BME280;29709;52.396;16.796;2023-05-10T07:16:11;101738.08;;;17.77;40.37
44044;BME280;29709;52.396;16.796;2023-05-10T07:19:24;101736.06;;;17.85;40.50
44044;BME280;29709;52.396;16.796;2023-05-10T07:22:37;101723.73;;;18.09;40.30
44044;BME280;29709;52.396;16.796;2023-05-10T07:25:51;101717.68;;;18.42;39.39
44044;BME280;29709;52.396;16.796;2023-05-10T07:29:05;101722.51;;;18.33;38.35
44044;BME280;29709;52.396;16.796;2023-05-10T07:32:18;101714.91;;;18.42;38.62
44044;BME280;29709;52.396;16.796;2023-05-10T07:35:31;101721.66;;;18.54;38.55
44044;BME280;29709;52.396;16.796;2023-05-10T07:38:44;101720.22;;;18.58;38.06
44044;BME280;29709;52.396;16.796;2023-05-10T07:41:58;101731.07;;;18.53;38.08
44044;BME280;29709;52.396;16.796;2023-05-10T07:45:11;101724.12;;;18.64;37.46
44044;BME280;29709;52.396;16.796;2023-05-10T07:48:26;101718.66;;;18.70;37.30
44044;BME280;29709;52.396;16.796;2023-05-10T07:51:40;101726.59;;;18.95;38.26
44044;BME280;29709;52.396;16.796;2023-05-10T07:54:53;101720.31;;;19.14;37.72
44044;BME280;29709;52.396;16.796;2023-05-10T07:58:09;101715.25;;;19.24;37.18
44044;BME280;29709;52.396;16.796;2023-05-10T08:01:22;101717.89;;;19.32;37.66
44044;BME280;29709;52.396;16.796;2023-05-10T08:04:35;101719.46;;;19.42;37.53
44044;BME280;29709;52.396;16.796;2023-05-10T08:07:48;101722.39;;;19.33;37.44
44044;BME280;29709;52.396;16.796;2023-05-10T08:11:03;101713.62;;;19.65;37.78
44044;BME280;29709;52.396;16.796;2023-05-10T08:14:16;101712.01;;;19.83;36.50
44044;BME280;29709;52.396;16.796;2023-05-10T08:17:30;101705.79;;;19.88;37.11
44044;BME280;29709;52.396;16.796;2023-05-10T08:20:43;101704.12;;;20.00;36.69
44044;BME280;29709;52.396;16.796;2023-05-10T08:23:56;101710.17;;;20.10;36.92
44044;BME280;29709;52.396;16.796;2023-05-10T08:27:21;101713.27;;;20.35;36.72
44044;BME280;29709;52.396;16.796;2023-05-10T08:30:35;101715.85;;;20.37;35.81
44044;BME280;29709;52.396;16.796;2023-05-10T08:33:48;101710.70;;;20.40;36.40
44044;BME280;29709;52.396;16.796;2023-05-10T08:37:01;101708.55;;;20.36;36.28
44044;BME280;29709;52.396;16.796;2023-05-10T08:40:15;101706.13;;;20.19;35.99
44044;BME280;29709;52.396;16.796;2023-05-10T08:43:29;101705.33;;;20.32;36.09
44044;BME280;29709;52.396;16.796;2023-05-10T08:46:46;101701.09;;;20.50;35.28
44044;BME280;29709;52.396;16.796;2023-05-10T08:50:00;101707.12;;;20.60;35.47
44044;BME280;29709;52.396;16.796;2023-05-10T08:53:14;101698.77;;;20.66;35.43
44044;BME280;29709;52.396;16.796;2023-05-10T08:56:30;101692.52;;;20.71;33.75
44044;BME280;29709;52.396;16.796;2023-05-10T08:59:43;101690.59;;;20.71;34.70
44044;BME280;29709;52.396;16.796;2023-05-10T09:02:58;101693.38;;;20.71;33.86
44044;BME280;29709;52.396;16.796;2023-05-10T09:06:12;101687.35;;;20.61;32.76
44044;BME280;29709;52.396;16.796;2023-05-10T09:09:27;101694.91;;;20.74;33.03
44044;BME280;29709;52.396;16.796;2023-05-10T09:12:40;101687.59;;;20.80;33.68
44044;BME280;29709;52.396;16.796;2023-05-10T09:15:54;101692.11;;;21.00;32.24
44044;BME280;29709;52.396;16.796;2023-05-10T09:19:08;101698.34;;;21.09;31.31
44044;BME280;29709;52.396;16.796;2023-05-10T09:22:21;101677.91;;;21.09;31.47
44044;BME280;29709;52.396;16.796;2023-05-10T09:25:35;101684.12;;;21.24;32.23
44044;BME280;29709;52.396;16.796;2023-05-10T09:28:54;101679.60;;;21.36;30.48
44044;BME280;29709;52.396;16.796;2023-05-10T09:32:08;101684.60;;;21.27;30.32
44044;BME280;29709;52.396;16.796;2023-05-10T09:35:24;101689.11;;;21.28;29.82
44044;BME280;29709;52.396;16.796;2023-05-10T09:38:47;101685.42;;;21.35;30.80
44044;BME280;29709;52.396;16.796;2023-05-10T09:42:05;101677.89;;;21.48;30.55
44044;BME280;29709;52.396;16.796;2023-05-10T09:45:19;101685.15;;;21.63;29.92
44044;BME280;29709;52.396;16.796;2023-05-10T09:48:33;101689.44;;;21.65;28.95
44044;BME280;29709;52.396;16.796;2023-05-10T09:51:46;101677.20;;;21.59;29.65
44044;BME280;29709;52.396;16.796;2023-05-10T09:54:59;101674.80;;;21.70;29.16
44044;BME280;29709;52.396;16.796;2023-05-10T09:58:13;101677.09;;;21.86;30.38
44044;BME280;29709;52.396;16.796;2023-05-10T10:01:26;101674.29;;;21.86;29.36
44044;BME280;29709;52.396;16.796;2023-05-10T10:04:41;101672.39;;;21.80;29.11
44044;BME280;29709;52.396;16.796;2023-05-10T10:07:56;101672.81;;;21.77;28.45
44044;BME280;29709;52.396;16.796;2023-05-10T10:11:10;101671.17;;;21.56;29.08
44044;BME280;29709;52.396;16.796;2023-05-10T10:14:23;101671.15;;;21.69;29.59
44044;BME280;29709;52.396;16.796;2023-05-10T10:17:37;101673.48;;;21.79;29.22
44044;BME280;29709;52.396;16.796;2023-05-10T10:20:54;101663.33;;;21.78;29.44
44044;BME280;29709;52.396;16.796;2023-05-10T10:24:08;101660.30;;;21.86;28.53
44044;BME280;29709;52.396;16.796;2023-05-10T10:27:26;101657.88;;;21.96;29.00
44044;BME280;29709;52.396;16.796;2023-05-10T10:30:43;101657.88;;;21.96;28.69
44044;BME280;29709;52.396;16.796;2023-05-10T10:34:01;101646.29;;;21.93;29.12
44044;BME280;29709;52.396;16.796;2023-05-10T10:37:17;101650.57;;;21.95;29.18
44044;BME280;29709;52.396;16.796;2023-05-10T10:40:32;101649.39;;;22.23;29.57
44044;BME280;29709;52.396;16.796;2023-05-10T10:43:46;101652.35;;;22.28;28.42
44044;BME280;29709;52.396;16.796;2023-05-10T10:47:07;101648.56;;;22.15;28.68
44044;BME280;29709;52.396;16.796;2023-05-10T10:50:25;101654.91;;;21.91;29.04
44044;BME280;29709;52.396;16.796;2023-05-10T10:53:40;101642.78;;;22.04;28.39
44044;BME280;29709;52.396;16.796;2023-05-10T10:57:21;101643.03;;;21.96;28.62
44044;BME280;29709;52.396;16.796;2023-05-10T11:03:40;101632.87;;;22.08;28.93
44044;BME280;29709;52.396;16.796;2023-05-10T11:07:15;101635.48;;;22.09;28.78
44044;BME280;29709;52.396;16.796;2023-05-10T11:10:20;101618.88;;;22.08;28.91
44044;BME280;29709;52.396;16.796;2023-05-10T11:16:56;101632.62;;;22.47;28.90
44044;BME280;29709;52.396;16.796;2023-05-10T11:20:10;101619.88;;;22.52;29.23
44044;BME280;29709;52.396;16.796;2023-05-10T11:23:23;101619.35;;;22.61;28.85
44044;BME280;29709;52.396;16.796;2023-05-10T11:26:37;101625.65;;;22.57;28.96
44044;BME280;29709;52.396;16.796;2023-05-10T11:29:53;101611.65;;;22.57;28.94
44044;BME280;29709;52.396;16.796;2023-05-10T11:33:07;101606.62;;;22.65;28.53
44044;BME280;29709;52.396;16.796;2023-05-10T11:36:24;101615.41;;;22.69;27.73
44044;BME280;29709;52.396;16.796;2023-05-10T11:39:38;101611.33;;;22.40;27.96
44044;BME280;29709;52.396;16.796;2023-05-10T11:42:51;101622.49;;;22.46;28.31
44044;BME280;29709;52.396;16.796;2023-05-10T11:46:06;101622.45;;;22.53;28.63
44044;BME280;29709;52.396;16.796;2023-05-10T11:49:20;101621.37;;;22.54;28.70
44044;BME280;29709;52.396;16.796;2023-05-10T11:52:36;101619.70;;;22.71;28.99
44044;BME280;29709;52.396;16.796;2023-05-10T11:55:53;101616.43;;;22.50;28.51
44044;BME280;29709;52.396;16.796;2023-05-10T11:59:06;101630.16;;;22.58;28.99
44044;BME280;29709;52.396;16.796;2023-05-10T12:02:20;101614.99;;;22.40;28.35
44044;BME280;29709;52.396;16.796;2023-05-10T12:05:34;101616.66;;;22.48;28.93
44044;BME280;29709;52.396;16.796;2023-05-10T12:08:48;101623.09;;;22.55;29.03
44044;BME280;29709;52.396;16.796;2023-05-10T12:12:06;101619.58;;;22.60;28.62
44044;BME280;29709;52.396;16.796;2023-05-10T12:15:24;101617.02;;;22.58;28.68
44044;BME280;29709;52.396;16.796;2023-05-10T12:18:40;101625.65;;;22.82;28.93
44044;BME280;29709;52.396;16.796;2023-05-10T12:21:54;101633.27;;;22.74;27.98
44044;BME280;29709;52.396;16.796;2023-05-10T12:25:10;101621.99;;;22.56;28.62
44044;BME280;29709;52.396;16.796;2023-05-10T12:28:23;101629.70;;;22.61;29.19
44044;BME280;29709;52.396;16.796;2023-05-10T12:35:03;101611.26;;;22.53;28.58
44044;BME280;29709;52.396;16.796;2023-05-10T12:38:26;101621.13;;;22.56;29.00
44044;BME280;29709;52.396;16.796;2023-05-10T12:41:43;101616.84;;;22.78;29.23
44044;BME280;29709;52.396;16.796;2023-05-10T12:44:56;101614.43;;;22.82;28.33
44044;BME280;29709;52.396;16.796;2023-05-10T12:48:10;101606.71;;;22.84;28.56
44044;BME280;29709;52.396;16.796;2023-05-10T12:51:23;101608.61;;;23.08;29.09
44044;BME280;29709;52.396;16.796;2023-05-10T12:54:36;101611.76;;;23.37;29.22
44044;BME280;29709;52.396;16.796;2023-05-10T12:57:49;101603.64;;;23.28;28.59
44044;BME280;29709;52.396;16.796;2023-05-10T13:01:02;101600.84;;;23.28;28.77
44044;BME280;29709;52.396;16.796;2023-05-10T13:04:17;101603.34;;;23.37;28.82
44044;BME280;29709;52.396;16.796;2023-05-10T13:07:30;101598.83;;;23.36;28.56
44044;BME280;29709;52.396;16.796;2023-05-10T13:10:43;101593.02;;;23.12;28.70
44044;BME280;29709;52.396;16.796;2023-05-10T13:13:57;101596.78;;;23.06;28.38
44044;BME280;29709;52.396;16.796;2023-05-10T13:17:10;101605.18;;;23.06;29.29
44044;BME280;29709;52.396;16.796;2023-05-10T13:20:23;101592.64;;;23.09;28.88
44044;BME280;29709;52.396;16.796;2023-05-10T13:23:36;101582.27;;;23.09;29.18
44044;BME280;29709;52.396;16.796;2023-05-10T13:26:49;101589.62;;;23.28;29.49
44044;BME280;29709;52.396;16.796;2023-05-10T13:30:04;101591.39;;;23.23;28.77
44044;BME280;29709;52.396;16.796;2023-05-10T13:33:17;101589.45;;;23.05;28.82
44044;BME280;29709;52.396;16.796;2023-05-10T13:36:30;101586.48;;;23.00;29.01
44044;BME280;29709;52.396;16.796;2023-05-10T13:39:47;101557.88;;;22.91;29.12
44044;BME280;29709;52.396;16.796;2023-05-10T13:43:00;101578.54;;;22.97;29.65
44044;BME280;29709;52.396;16.796;2023-05-10T13:46:13;101583.11;;;22.91;28.81
44044;BME280;29709;52.396;16.796;2023-05-10T13:49:27;101570.05;;;22.79;29.46
44044;BME280;29709;52.396;16.796;2023-05-10T13:52:40;101584.45;;;22.82;29.08
44044;BME280;29709;52.396;16.796;2023-05-10T13:59:30;101576.69;;;22.59;29.68
44044;BME280;29709;52.396;16.796;2023-05-10T14:02:47;101577.74;;;22.65;29.44
44044;BME280;29709;52.396;16.796;2023-05-10T14:06:01;101576.99;;;22.76;29.82
44044;BME280;29709;52.396;16.796;2023-05-10T14:09:16;101574.70;;;22.91;30.08
44044;BME280;29709;52.396;16.796;2023-05-10T14:12:30;101551.20;;;22.67;29.96
44044;BME280;29709;52.396;16.796;2023-05-10T14:15:43;101565.16;;;22.74;29.64
44044;BME280;29709;52.396;16.796;2023-05-10T14:18:57;101563.78;;;22.58;29.78
44044;BME280;29709;52.396;16.796;2023-05-10T14:22:10;101562.30;;;22.56;30.66
44044;BME280;29709;52.396;16.796;2023-05-10T14:25:23;101557.97;;;22.85;30.78
44044;BME280;29709;52.396;16.796;2023-05-10T14:28:37;101561.34;;;22.93;29.67
44044;BME280;29709;52.396;16.796;2023-05-10T14:31:50;101562.63;;;22.66;30.34
44044;BME280;29709;52.396;16.796;2023-05-10T14:35:03;101562.58;;;22.47;30.25
44044;BME280;29709;52.396;16.796;2023-05-10T14:38:18;101564.53;;;22.47;31.10
44044;BME280;29709;52.396;16.796;2023-05-10T14:41:31;101562.66;;;22.41;30.51
44044;BME280;29709;52.396;16.796;2023-05-10T14:44:45;101554.10;;;22.29;30.75
44044;BME280;29709;52.396;16.796;2023-05-10T14:47:58;101557.45;;;22.44;30.69
44044;BME280;29709;52.396;16.796;2023-05-10T14:51:11;101555.99;;;22.60;30.96
44044;BME280;29709;52.396;16.796;2023-05-10T14:57:48;101553.66;;;22.57;31.26
44044;BME280;29709;52.396;16.796;2023-05-10T15:01:04;101550.19;;;22.62;31.38
44044;BME280;29709;52.396;16.796;2023-05-10T15:04:17;101552.24;;;22.73;31.39
44044;BME280;29709;52.396;16.796;2023-05-10T15:07:31;101561.59;;;22.60;31.06
44044;BME280;29709;52.396;16.796;2023-05-10T15:10:45;101560.36;;;22.56;30.88
44044;BME280;29709;52.396;16.796;2023-05-10T15:13:58;101556.98;;;22.47;31.45
44044;BME280;29709;52.396;16.796;2023-05-10T15:17:12;101558.42;;;22.32;30.99
44044;BME280;29709;52.396;16.796;2023-05-10T15:20:25;101555.07;;;22.16;31.24
44044;BME280;29709;52.396;16.796;2023-05-10T15:23:39;101547.14;;;22.13;31.41
44044;BME280;29709;52.396;16.796;2023-05-10T15:26:52;101553.25;;;22.29;31.34
44044;BME280;29709;52.396;16.796;2023-05-10T15:30:06;101554.80;;;22.50;31.42
44044;BME280;29709;52.396;16.796;2023-05-10T15:33:20;101546.41;;;22.50;31.24
44044;BME280;29709;52.396;16.796;2023-05-10T15:36:33;101554.02;;;22.42;31.05
44044;BME280;29709;52.396;16.796;2023-05-10T15:39:46;101546.98;;;22.33;31.05
44044;BME280;29709;52.396;16.796;2023-05-10T15:42:59;101558.96;;;22.15;31.47
44044;BME280;29709;52.396;16.796;2023-05-10T15:46:13;101554.75;;;22.00;31.04
44044;BME280;29709;52.396;16.796;2023-05-10T15:49:26;101555.37;;;22.02;31.91
44044;BME280;29709;52.396;16.796;2023-05-10T15:52:39;101552.77;;;22.07;31.46
44044;BME280;29709;52.396;16.796;2023-05-10T15:55:54;101548.06;;;22.01;31.93
44044;BME280;29709;52.396;16.796;2023-05-10T15:59:07;101553.00;;;21.99;32.25
44044;BME280;29709;52.396;16.796;2023-05-10T16:02:23;101546.09;;;22.08;32.78
44044;BME280;29709;52.396;16.796;2023-05-10T16:05:37;101552.40;;;22.28;31.95
44044;BME280;29709;52.396;16.796;2023-05-10T16:08:50;101550.68;;;22.27;31.90
44044;BME280;29709;52.396;16.796;2023-05-10T16:12:04;101554.34;;;22.28;32.11
44044;BME280;29709;52.396;16.796;2023-05-10T16:15:17;101556.75;;;22.24;31.60
44044;BME280;29709;52.396;16.796;2023-05-10T16:18:30;101558.38;;;22.07;32.01
44044;BME280;29709;52.396;16.796;2023-05-10T16:21:44;101551.49;;;22.03;32.07
44044;BME280;29709;52.396;16.796;2023-05-10T16:24:58;101555.99;;;22.04;31.98
44044;BME280;29709;52.396;16.796;2023-05-10T16:28:11;101563.55;;;22.10;32.22
44044;BME280;29709;52.396;16.796;2023-05-10T16:31:24;101558.57;;;22.05;32.47
44044;BME280;29709;52.396;16.796;2023-05-10T16:34:37;101565.09;;;21.99;32.42
44044;BME280;29709;52.396;16.796;2023-05-10T16:37:51;101572.56;;;22.05;32.12
44044;BME280;29709;52.396;16.796;2023-05-10T16:41:05;101559.66;;;22.04;32.35
44044;BME280;29709;52.396;16.796;2023-05-10T16:44:18;101569.16;;;21.97;32.58
44044;BME280;29709;52.396;16.796;2023-05-10T16:47:32;101556.75;;;21.86;32.46
44044;BME280;29709;52.396;16.796;2023-05-10T16:50:46;101566.95;;;21.74;32.44
44044;BME280;29709;52.396;16.796;2023-05-10T16:53:59;101572.62;;;21.60;32.75
44044;BME280;29709;52.396;16.796;2023-05-10T16:57:13;101563.44;;;21.47;32.45
44044;BME280;29709;52.396;16.796;2023-05-10T17:00:26;101572.72;;;21.34;32.93
44044;BME280;29709;52.396;16.796;2023-05-10T17:03:39;101573.62;;;21.28;32.50
44044;BME280;29709;52.396;16.796;2023-05-10T17:06:53;101575.76;;;21.19;32.55
44044;BME280;29709;52.396;16.796;2023-05-10T17:10:06;101580.71;;;21.17;32.89
44044;BME280;29709;52.396;16.796;2023-05-10T17:13:20;101577.91;;;21.17;32.85
44044;BME280;29709;52.396;16.796;2023-05-10T17:16:33;101587.17;;;21.11;32.61
44044;BME280;29709;52.396;16.796;2023-05-10T17:19:48;101590.40;;;21.08;33.16
44044;BME280;29709;52.396;16.796;2023-05-10T17:23:01;101591.04;;;21.10;33.27
44044;BME280;29709;52.396;16.796;2023-05-10T17:26:15;101593.66;;;21.05;33.38